Quick Links (Output Below):   Max & Min Temps   /   Climate Reports   /   Zone Forecasts
River Forecasts   /   Forestry Forecasts   /   Aviation Forecasts   /   Radars   /   Features

Terminal Aerodrome Forecast (Highfill)

Pick a Site:
Arkadelphia | El Dorado | Fayetteville | Fort Smith | Harrison | Highfill | Hot Springs | Jonesboro
Little Rock | Monticello | Mountain Home | Pine Bluff | Texarkana
 Forecast 

KXNA 021120Z 0212/0312 23012G18KT P6SM SCT030 BKN060 BKN100
     FM021900 29013KT P6SM VCTS SCT030 BKN050CB
     FM030100 30006KT P6SM VCTS BKN120CB=


 Latest METARs (Observations) 
How to Decode METARs
12Z KXNA 021153Z 22009KT 10SM CLR 25/22 A2986 RMK AO2 SLP095 T02500217
         10267 20250 51008
         
11Z KXNA 021053Z 22011KT 10SM OVC085 26/22 A2986 RMK AO2 SLP093
         T02560217
         
10Z KXNA 020953Z AUTO 22010G18KT 10SM BKN075 OVC100 26/22 A2985 RMK
         AO2 SLP089 T02560217
         
09Z KXNA 020853Z AUTO 22011G19KT 10SM OVC080 26/22 A2984 RMK AO2 LTG
         DSNT E SLP085 T02560217 56014
         
08Z KXNA 020753Z AUTO 21009KT 10SM VCTS BKN110 26/22 A2986 RMK AO2 LTG
         DSNT NE SLP091 T02560217
         
07Z KXNA 020653Z AUTO 22011KT 10SM CLR 26/22 A2986 RMK AO2 LTG DSNT N
         SLP094 T02610217
         
06Z KXNA 020553Z AUTO 20010KT 10SM CLR 26/22 A2988 RMK AO2 SLP100
         T02610217 10289 20261 403280233 53001
         
05Z KXNA 020453Z AUTO 21009KT 10SM CLR 26/22 A2988 RMK AO2 SLP099
         T02610217
         
04Z KXNA 020353Z 21013G19KT 10SM CLR 27/21 A2988 RMK AO2 SLP099
         T02720211
         
03Z KXNA 020253Z 20012KT 10SM CLR 27/21 A2988 RMK AO2 SLP102 T02720211
         55001
         
***** Today's Observations (Above) *****


Back to Main Page
http://www.srh.noaa.gov/lzk/qfcst.php

USA.gov is the U.S. government's official web portal to all federal, state and local government web resources and services.